createdAt,value
2022-08-30T00:00:27.024Z,61.45
2022-08-30T00:01:06.515Z,61.52
2022-08-30T00:01:38.741Z,61.09
2022-08-30T00:02:11.042Z,61.38
2022-08-30T00:02:43.753Z,61.39
2022-08-30T00:03:19.583Z,61.42
2022-08-30T00:03:53.059Z,61.30
2022-08-30T00:04:26.501Z,61.14
2022-08-30T00:05:01.790Z,61.84
2022-08-30T00:05:34.978Z,61.52
2022-08-30T00:06:08.601Z,61.42
2022-08-30T00:06:43.397Z,61.36
2022-08-30T00:07:15.905Z,61.83
2022-08-30T00:07:48.570Z,61.26
2022-08-30T00:08:23.875Z,61.55
2022-08-30T00:08:56.470Z,61.86
2022-08-30T00:09:28.710Z,61.41
2022-08-30T00:10:03.627Z,61.99
2022-08-30T00:10:36.063Z,61.56
2022-08-30T00:11:14.870Z,61.37
2022-08-30T00:11:50.280Z,61.78
2022-08-30T00:12:22.490Z,61.88
2022-08-30T00:12:55.212Z,62.07
2022-08-30T00:13:30.670Z,62.14
2022-08-30T00:14:02.904Z,62.39
2022-08-30T00:14:35.187Z,61.86
2022-08-30T00:15:10.626Z,62.06
2022-08-30T00:15:45.184Z,61.89
2022-08-30T00:16:18.384Z,62.14
2022-08-30T00:16:53.177Z,62.19
2022-08-30T00:17:25.399Z,61.92
2022-08-30T00:17:57.621Z,62.30
2022-08-30T00:18:32.437Z,62.12
2022-08-30T00:19:05.286Z,62.38
2022-08-30T00:19:38.276Z,62.03
2022-08-30T00:20:18.119Z,62.60
2022-08-30T00:20:51.276Z,62.54
2022-08-30T00:21:27.242Z,62.42
2022-08-30T00:21:59.559Z,62.47
2022-08-30T00:22:33.174Z,62.58
2022-08-30T00:23:09.201Z,62.41
2022-08-30T00:23:42.119Z,62.52
2022-08-30T00:24:14.371Z,62.38
2022-08-30T00:24:49.601Z,62.64
2022-08-30T00:25:23.437Z,62.35
2022-08-30T00:25:55.665Z,62.99
2022-08-30T00:26:33.014Z,62.69
2022-08-30T00:27:05.506Z,62.51
2022-08-30T00:27:37.669Z,62.34
2022-08-30T00:28:12.555Z,62.13
2022-08-30T00:28:44.776Z,63.01
2022-08-30T00:29:16.959Z,62.50
2022-08-30T00:29:51.649Z,62.31
2022-08-30T00:30:24.191Z,62.31
2022-08-30T00:30:56.456Z,62.50
2022-08-30T00:31:31.537Z,62.54
2022-08-30T00:32:04.206Z,63.05
2022-08-30T00:32:36.462Z,63.40
2022-08-30T00:33:11.292Z,63.00
2022-08-30T00:33:43.695Z,62.98
2022-08-30T00:34:16.865Z,62.75
2022-08-30T00:34:51.750Z,62.91
2022-08-30T00:35:25.233Z,62.65
2022-08-30T00:35:57.547Z,62.62
2022-08-30T00:36:32.310Z,62.49
2022-08-30T00:37:04.801Z,62.95
2022-08-30T00:37:37.185Z,62.86
2022-08-30T00:38:11.827Z,62.48
2022-08-30T00:38:46.675Z,62.73
2022-08-30T00:39:18.957Z,62.84
2022-08-30T00:39:51.452Z,63.18
2022-08-30T00:40:27.611Z,62.99
2022-08-30T00:40:59.996Z,62.71
2022-08-30T00:41:35.422Z,63.64
2022-08-30T00:42:13.097Z,62.97
2022-08-30T00:42:50.544Z,63.12
2022-08-30T00:43:27.734Z,63.26
2022-08-30T00:44:02.845Z,62.94
2022-08-30T00:44:35.527Z,63.14
2022-08-30T00:45:13.263Z,62.80
2022-08-30T00:45:45.695Z,62.90
2022-08-30T00:46:20.424Z,63.30
2022-08-30T00:46:52.709Z,63.06
2022-08-30T00:47:24.945Z,63.20
2022-08-30T00:48:00.374Z,63.04
2022-08-30T00:48:33.900Z,62.71
2022-08-30T00:49:12.157Z,62.88
2022-08-30T00:49:48.488Z,62.86
2022-08-30T00:50:23.563Z,62.98
2022-08-30T00:51:02.092Z,63.08
2022-08-30T00:51:35.009Z,63.45
2022-08-30T00:52:07.978Z,63.52
2022-08-30T00:52:45.522Z,63.34
2022-08-30T00:53:24.985Z,63.15
2022-08-30T00:54:00.072Z,63.53
2022-08-30T00:54:34.310Z,63.28
2022-08-30T00:55:07.773Z,63.32
2022-08-30T00:55:44.262Z,63.33
2022-08-30T00:56:18.210Z,63.06
2022-08-30T00:56:53.518Z,63.21
2022-08-30T00:57:28.575Z,63.26
2022-08-30T00:58:05.831Z,63.11
2022-08-30T00:58:42.821Z,63.37
2022-08-30T00:59:18.176Z,63.53
2022-08-30T00:59:50.940Z,63.69
2022-08-30T01:00:23.646Z,63.83
2022-08-30T01:01:01.874Z,63.56
2022-08-30T01:01:36.219Z,63.64
2022-08-30T01:02:10.395Z,63.51
2022-08-30T01:02:45.528Z,63.85
2022-08-30T01:03:21.475Z,63.76
2022-08-30T01:03:54.519Z,63.92
2022-08-30T01:04:30.104Z,63.66
2022-08-30T01:05:04.170Z,63.66
2022-08-30T01:05:38.734Z,64.00
2022-08-30T01:06:15.701Z,63.80
2022-08-30T01:06:48.312Z,64.28
2022-08-30T01:07:20.474Z,63.92
2022-08-30T01:07:55.375Z,64.16
2022-08-30T01:08:27.548Z,64.30
2022-08-30T01:09:01.189Z,64.21
2022-08-30T01:09:36.095Z,64.31
2022-08-30T01:10:10.625Z,64.17
2022-08-30T01:10:44.066Z,63.93
2022-08-30T01:11:23.269Z,64.43
2022-08-30T01:11:58.178Z,64.11
2022-08-30T01:12:30.842Z,64.36
2022-08-30T01:13:05.810Z,64.39
2022-08-30T01:13:38.608Z,64.42
2022-08-30T01:14:14.505Z,64.25
2022-08-30T01:14:47.446Z,64.34
2022-08-30T01:15:21.274Z,64.23
2022-08-30T01:15:54.120Z,64.19
2022-08-30T01:16:32.996Z,64.48
2022-08-30T01:17:06.010Z,64.52
2022-08-30T01:17:38.966Z,64.61
2022-08-30T01:18:17.569Z,64.70
2022-08-30T01:18:52.331Z,64.55
2022-08-30T01:19:31.793Z,64.66
2022-08-30T01:20:09.925Z,64.53
2022-08-30T01:20:49.651Z,64.60
2022-08-30T01:21:28.218Z,64.85
2022-08-30T01:22:12.943Z,64.76
2022-08-30T01:22:59.959Z,65.07
2022-08-30T01:23:33.678Z,64.94
2022-08-30T01:24:11.579Z,64.83
2022-08-30T01:24:47.843Z,65.09
2022-08-30T01:25:23.709Z,65.02
2022-08-30T01:26:00.115Z,65.32
2022-08-30T01:26:34.938Z,65.45
2022-08-30T01:27:07.138Z,65.04
2022-08-30T01:27:46.152Z,64.95
2022-08-30T01:28:23.293Z,65.01
2022-08-30T01:29:01.875Z,64.85
2022-08-30T01:29:34.382Z,65.21
2022-08-30T01:30:08.971Z,65.08
2022-08-30T01:30:44.926Z,65.30
2022-08-30T01:31:17.309Z,65.32
2022-08-30T01:31:49.594Z,65.15
2022-08-30T01:32:29.458Z,65.33
2022-08-30T01:33:04.687Z,65.82
2022-08-30T01:33:38.325Z,65.41
2022-08-30T01:34:13.241Z,65.32
2022-08-30T01:34:45.662Z,65.01
2022-08-30T01:35:20.530Z,65.52
2022-08-30T01:35:57.741Z,65.48
2022-08-30T01:36:29.999Z,65.38
2022-08-30T01:37:02.415Z,65.13
2022-08-30T01:37:39.326Z,65.48
2022-08-30T01:38:15.071Z,65.37
2022-08-30T01:38:49.594Z,65.10
2022-08-30T01:39:24.891Z,65.51
2022-08-30T01:39:57.142Z,65.14
2022-08-30T01:40:29.494Z,65.58
2022-08-30T01:41:12.850Z,65.30
2022-08-30T01:41:45.751Z,65.03
2022-08-30T01:42:18.330Z,65.57
2022-08-30T01:42:53.112Z,65.29
2022-08-30T01:43:25.553Z,65.23
2022-08-30T01:43:59.652Z,65.17
2022-08-30T01:44:34.521Z,65.44
2022-08-30T01:45:08.769Z,65.46
2022-08-30T01:45:41.160Z,65.51
2022-08-30T01:46:18.001Z,65.57
2022-08-30T01:46:50.156Z,65.74
2022-08-30T01:47:23.142Z,65.87
2022-08-30T01:47:55.367Z,65.87
2022-08-30T01:48:30.194Z,65.86
2022-08-30T01:49:06.857Z,65.78
2022-08-30T01:49:42.619Z,65.34
2022-08-30T01:50:14.946Z,65.71
2022-08-30T01:50:48.403Z,65.56
2022-08-30T01:51:23.635Z,65.78
2022-08-30T01:52:00.908Z,65.43
2022-08-30T01:52:34.128Z,65.76
2022-08-30T01:53:09.204Z,65.31
2022-08-30T01:53:48.067Z,65.73
2022-08-30T01:54:20.265Z,65.93
2022-08-30T01:55:02.283Z,65.69
2022-08-30T01:55:34.943Z,65.49
2022-08-30T01:56:08.129Z,65.31
2022-08-30T01:56:42.900Z,65.46
2022-08-30T01:57:18.508Z,65.52
2022-08-30T01:57:50.720Z,65.50
2022-08-30T01:58:25.934Z,65.61
2022-08-30T01:59:02.542Z,65.56
2022-08-30T01:59:35.312Z,65.60
2022-08-30T02:00:12.867Z,66.12
2022-08-30T02:00:45.089Z,65.73
2022-08-30T02:01:20.130Z,66.08
2022-08-30T02:01:55.198Z,65.98
2022-08-30T02:02:29.628Z,65.78
2022-08-30T02:03:01.831Z,66.24
2022-08-30T02:03:37.430Z,66.11
2022-08-30T02:04:11.980Z,66.39
2022-08-30T02:04:44.823Z,66.09
2022-08-30T02:05:19.934Z,66.48
2022-08-30T02:05:52.354Z,66.60
2022-08-30T02:06:24.633Z,66.86
2022-08-30T02:06:59.537Z,66.70
2022-08-30T02:07:32.060Z,66.46
2022-08-30T02:08:04.902Z,66.46
2022-08-30T02:08:40.692Z,66.88
2022-08-30T02:09:15.565Z,66.52
2022-08-30T02:09:51.070Z,66.55
2022-08-30T02:10:23.943Z,66.82
2022-08-30T02:10:56.126Z,67.01
2022-08-30T02:11:31.061Z,67.02
2022-08-30T02:12:04.713Z,66.63
2022-08-30T02:12:36.878Z,66.45
2022-08-30T02:13:11.788Z,66.87
2022-08-30T02:13:45.692Z,66.94
2022-08-30T02:14:17.837Z,66.71
2022-08-30T02:14:56.134Z,67.34
2022-08-30T02:15:28.528Z,67.00
2022-08-30T02:16:00.681Z,67.34
2022-08-30T02:16:35.742Z,67.26
2022-08-30T02:17:09.631Z,67.47
2022-08-30T02:17:42.557Z,67.19
2022-08-30T02:18:17.275Z,67.36
2022-08-30T02:18:49.795Z,67.51
2022-08-30T02:19:21.938Z,67.70
2022-08-30T02:19:56.857Z,67.33
2022-08-30T02:20:29.205Z,67.66
2022-08-30T02:21:01.903Z,67.64
2022-08-30T02:21:37.225Z,67.72
2022-08-30T02:22:09.778Z,67.42
2022-08-30T02:22:47.582Z,67.60
2022-08-30T02:23:24.186Z,67.91
2022-08-30T02:23:56.471Z,67.93
2022-08-30T02:24:31.387Z,67.80
2022-08-30T02:25:07.375Z,68.42
2022-08-30T02:25:50.894Z,67.96
2022-08-30T02:26:23.656Z,67.72
2022-08-30T02:26:58.438Z,67.75
2022-08-30T02:27:30.664Z,68.03
2022-08-30T02:28:03.161Z,68.16
2022-08-30T02:28:35.866Z,68.12
2022-08-30T02:29:25.830Z,68.33
2022-08-30T02:29:58.013Z,68.04
2022-08-30T02:30:30.233Z,68.23
2022-08-30T02:31:05.083Z,68.51
2022-08-30T02:31:37.394Z,68.35
2022-08-30T02:32:09.609Z,68.69
2022-08-30T02:32:44.367Z,68.80
2022-08-30T02:33:16.759Z,68.78
2022-08-30T02:33:50.560Z,68.43
2022-08-30T02:34:25.346Z,68.86
2022-08-30T02:34:57.498Z,68.35
2022-08-30T02:35:29.831Z,68.40
2022-08-30T02:36:05.211Z,68.38
2022-08-30T02:36:39.599Z,68.83
2022-08-30T02:37:11.911Z,68.67
2022-08-30T02:37:46.714Z,68.45
2022-08-30T02:38:20.078Z,68.72
2022-08-30T02:38:52.728Z,68.70
2022-08-30T02:39:27.468Z,68.94
2022-08-30T02:40:02.282Z,68.50
2022-08-30T02:40:34.889Z,68.41
2022-08-30T02:41:13.879Z,68.79
2022-08-30T02:41:46.326Z,69.02
2022-08-30T02:42:21.124Z,69.39
2022-08-30T02:42:53.273Z,68.78
2022-08-30T02:43:25.989Z,68.77
2022-08-30T02:44:01.083Z,68.79
2022-08-30T02:44:33.298Z,68.64
2022-08-30T02:45:06.562Z,68.88
2022-08-30T02:45:41.412Z,68.75
2022-08-30T02:46:13.871Z,68.98
2022-08-30T02:46:46.114Z,69.01
2022-08-30T02:47:20.862Z,69.04
2022-08-30T02:47:53.362Z,69.30
2022-08-30T02:48:25.783Z,68.92
2022-08-30T02:49:12.983Z,68.82
2022-08-30T02:49:52.908Z,69.02
2022-08-30T02:50:29.683Z,68.95
2022-08-30T02:51:06.794Z,69.31
2022-08-30T02:51:41.790Z,69.49
2022-08-30T02:52:16.728Z,69.35
2022-08-30T02:52:49.137Z,69.05
2022-08-30T02:53:21.893Z,69.38
2022-08-30T02:53:57.510Z,69.59
2022-08-30T02:54:32.498Z,69.44
2022-08-30T02:55:08.519Z,69.39
2022-08-30T02:55:43.475Z,69.37
2022-08-30T02:56:16.491Z,69.59
2022-08-30T02:56:49.892Z,69.39
2022-08-30T02:57:24.745Z,69.36
2022-08-30T02:57:57.191Z,69.51
2022-08-30T02:58:29.463Z,69.83
2022-08-30T02:59:05.419Z,69.59
2022-08-30T02:59:41.809Z,69.79
2022-08-30T03:00:19.942Z,69.53
2022-08-30T03:00:52.632Z,69.76
2022-08-30T03:01:29.202Z,69.38
2022-08-30T03:02:04.246Z,69.45
2022-08-30T03:02:36.407Z,69.39
2022-08-30T03:03:09.126Z,69.71
2022-08-30T03:03:45.705Z,69.63
2022-08-30T03:04:17.947Z,69.81
2022-08-30T03:04:58.864Z,69.80
2022-08-30T03:05:34.427Z,69.81
2022-08-30T03:06:07.327Z,69.79
2022-08-30T03:06:39.662Z,70.26
2022-08-30T03:07:15.284Z,69.93
2022-08-30T03:07:47.735Z,69.94
2022-08-30T03:08:19.931Z,69.77
2022-08-30T03:08:54.701Z,70.44
2022-08-30T03:09:26.885Z,69.78
2022-08-30T03:09:59.081Z,70.11
2022-08-30T03:10:36.485Z,69.76
2022-08-30T03:11:10.527Z,69.83
2022-08-30T03:11:42.816Z,70.13
2022-08-30T03:12:17.600Z,70.45
2022-08-30T03:12:49.844Z,70.02
2022-08-30T03:13:21.982Z,70.12
2022-08-30T03:13:56.738Z,70.52
2022-08-30T03:14:29.148Z,70.52
2022-08-30T03:15:01.415Z,70.17
2022-08-30T03:15:36.527Z,70.68
2022-08-30T03:16:08.958Z,70.70
2022-08-30T03:16:41.162Z,70.67
2022-08-30T03:17:16.903Z,70.94
2022-08-30T03:17:49.023Z,70.67
2022-08-30T03:18:21.954Z,70.91
2022-08-30T03:18:56.709Z,70.52
2022-08-30T03:19:29.145Z,70.78
2022-08-30T03:20:02.287Z,71.10
2022-08-30T03:20:37.892Z,71.38
2022-08-30T03:21:11.922Z,71.79
2022-08-30T03:21:45.023Z,71.36
2022-08-30T03:22:20.288Z,71.68
2022-08-30T03:22:53.159Z,71.64
2022-08-30T03:23:25.398Z,71.41
2022-08-30T03:24:00.095Z,71.57
2022-08-30T03:24:32.451Z,71.99
2022-08-30T03:25:06.174Z,71.80
2022-08-30T03:25:43.738Z,71.65
2022-08-30T03:26:16.204Z,71.59
2022-08-30T03:26:51.030Z,72.01
2022-08-30T03:27:23.687Z,71.74
2022-08-30T03:27:55.984Z,72.18
2022-08-30T03:28:30.869Z,71.98
2022-08-30T03:29:03.717Z,72.21
2022-08-30T03:29:36.269Z,72.24
2022-08-30T03:30:13.207Z,72.24
2022-08-30T03:30:45.605Z,72.11
2022-08-30T03:31:17.853Z,72.03
2022-08-30T03:31:53.900Z,72.08
2022-08-30T03:32:26.520Z,71.90
2022-08-30T03:32:59.026Z,71.83
2022-08-30T03:33:34.405Z,71.97
2022-08-30T03:34:06.665Z,72.08
2022-08-30T03:34:38.848Z,72.44
2022-08-30T03:35:14.166Z,72.37
2022-08-30T03:35:46.363Z,72.06
2022-08-30T03:36:21.490Z,72.06
2022-08-30T03:36:55.437Z,72.11
2022-08-30T03:37:27.847Z,72.50
2022-08-30T03:38:02.678Z,72.25
2022-08-30T03:38:34.859Z,72.47
2022-08-30T03:39:08.106Z,72.57
2022-08-30T03:39:47.519Z,72.59
2022-08-30T03:40:22.393Z,72.45
2022-08-30T03:40:58.501Z,72.41
2022-08-30T03:41:33.242Z,72.55
2022-08-30T03:42:05.809Z,72.44
2022-08-30T03:42:38.210Z,72.36
2022-08-30T03:43:14.933Z,72.73
2022-08-30T03:43:47.536Z,72.81
2022-08-30T03:44:20.490Z,72.58
2022-08-30T03:44:53.804Z,72.95
2022-08-30T03:45:28.762Z,72.54
2022-08-30T03:46:01.445Z,72.75
2022-08-30T03:46:37.188Z,72.88
2022-08-30T03:47:12.398Z,72.87
2022-08-30T03:47:45.397Z,73.07
2022-08-30T03:48:17.978Z,73.51
2022-08-30T03:48:52.792Z,73.57
2022-08-30T03:49:25.107Z,73.45
2022-08-30T03:49:57.962Z,73.56
2022-08-30T03:50:33.401Z,73.40
2022-08-30T03:51:06.034Z,72.94
2022-08-30T03:51:38.394Z,73.28
2022-08-30T03:52:13.255Z,73.63
2022-08-30T03:52:45.903Z,73.44
2022-08-30T03:53:18.267Z,73.24
2022-08-30T03:53:50.618Z,73.29
2022-08-30T03:54:25.407Z,73.38
2022-08-30T03:54:57.995Z,73.97
2022-08-30T03:55:30.926Z,73.96
2022-08-30T03:56:08.786Z,73.62
2022-08-30T03:56:41.425Z,73.78
2022-08-30T03:57:19.746Z,73.73
2022-08-30T03:57:55.238Z,73.61
2022-08-30T03:58:28.994Z,74.51
2022-08-30T03:59:01.114Z,74.29
2022-08-30T03:59:36.039Z,74.09
2022-08-30T04:00:11.075Z,74.04
2022-08-30T04:00:46.446Z,74.53
2022-08-30T04:01:21.434Z,74.35
2022-08-30T04:01:54.171Z,74.13
2022-08-30T04:02:27.015Z,74.50
2022-08-30T04:03:01.922Z,74.15
2022-08-30T04:03:34.477Z,73.94
2022-08-30T04:04:06.603Z,74.41
2022-08-30T04:04:38.804Z,73.87
2022-08-30T04:05:14.800Z,74.09
2022-08-30T04:05:50.790Z,74.86
2022-08-30T04:06:23.128Z,74.20
2022-08-30T04:06:57.931Z,74.28
2022-08-30T04:07:30.079Z,74.41
2022-08-30T04:08:02.409Z,74.46
2022-08-30T04:08:38.355Z,74.30
2022-08-30T04:09:10.734Z,74.14
2022-08-30T04:09:42.905Z,74.73
2022-08-30T04:10:17.763Z,74.84
2022-08-30T04:10:50.911Z,74.45
2022-08-30T04:11:25.783Z,74.84
2022-08-30T04:12:00.583Z,75.04
2022-08-30T04:12:32.757Z,74.69
2022-08-30T04:13:05.806Z,74.84
2022-08-30T04:13:40.606Z,74.83
2022-08-30T04:14:12.849Z,74.56
2022-08-30T04:14:45.045Z,74.68
2022-08-30T04:15:21.010Z,74.75
2022-08-30T04:15:53.179Z,74.80
2022-08-30T04:16:26.510Z,74.77
2022-08-30T04:17:01.400Z,74.43
2022-08-30T04:17:33.563Z,74.76
2022-08-30T04:18:06.465Z,75.09
2022-08-30T04:18:41.726Z,75.21
2022-08-30T04:19:13.935Z,74.98
2022-08-30T04:19:47.238Z,75.00
2022-08-30T04:20:22.179Z,75.19
2022-08-30T04:20:55.143Z,75.19
2022-08-30T04:21:27.335Z,75.03
2022-08-30T04:22:02.287Z,75.45
2022-08-30T04:22:34.504Z,75.18
2022-08-30T04:23:07.293Z,75.23
2022-08-30T04:23:42.066Z,75.45
2022-08-30T04:24:14.349Z,75.60
2022-08-30T04:24:46.592Z,75.66
2022-08-30T04:25:21.699Z,75.44
2022-08-30T04:25:53.818Z,75.29
2022-08-30T04:26:29.338Z,75.10
2022-08-30T04:27:04.864Z,75.23
2022-08-30T04:27:37.727Z,74.95
2022-08-30T04:28:10.645Z,75.43
2022-08-30T04:28:45.470Z,75.46
2022-08-30T04:29:18.862Z,75.46
2022-08-30T04:29:51.067Z,75.42
2022-08-30T04:30:25.778Z,75.77
2022-08-30T04:30:57.963Z,75.17
2022-08-30T04:31:31.480Z,75.48
2022-08-30T04:32:07.084Z,75.48
2022-08-30T04:32:39.532Z,75.09
2022-08-30T04:33:13.388Z,75.44
2022-08-30T04:33:48.267Z,75.53
2022-08-30T04:34:20.486Z,75.97
2022-08-30T04:34:56.787Z,75.73
2022-08-30T04:35:31.646Z,76.07
2022-08-30T04:36:05.901Z,75.91
2022-08-30T04:36:38.670Z,76.00
2022-08-30T04:37:13.526Z,76.03
2022-08-30T04:37:46.039Z,76.29
2022-08-30T04:38:18.507Z,76.55
2022-08-30T04:38:57.125Z,75.88
2022-08-30T04:39:29.531Z,76.39
2022-08-30T04:40:01.878Z,76.31
2022-08-30T04:40:36.760Z,76.33
2022-08-30T04:41:15.133Z,76.41
2022-08-30T04:41:49.982Z,76.55
2022-08-30T04:42:24.778Z,76.23
2022-08-30T04:42:57.120Z,75.95
2022-08-30T04:43:30.612Z,76.02
2022-08-30T04:44:06.540Z,75.74
2022-08-30T04:44:41.395Z,76.05
2022-08-30T04:45:15.817Z,75.67
2022-08-30T04:45:52.445Z,75.70
2022-08-30T04:46:24.917Z,75.62
2022-08-30T04:46:58.124Z,76.06
2022-08-30T04:47:32.851Z,75.44
2022-08-30T04:48:05.178Z,75.37
2022-08-30T04:48:38.184Z,75.79
2022-08-30T04:49:12.894Z,75.16
2022-08-30T04:49:45.057Z,75.48
2022-08-30T04:50:20.030Z,75.57
2022-08-30T04:50:54.865Z,75.52
2022-08-30T04:51:27.045Z,75.17
2022-08-30T04:51:59.371Z,74.93
2022-08-30T04:52:34.200Z,75.11
2022-08-30T04:53:06.454Z,75.15
2022-08-30T04:53:38.599Z,75.13
2022-08-30T04:54:13.796Z,75.10
2022-08-30T04:54:46.016Z,75.19
2022-08-30T04:55:20.399Z,75.18
2022-08-30T04:55:55.316Z,74.73
2022-08-30T04:56:28.530Z,74.72
2022-08-30T04:57:03.680Z,74.41
2022-08-30T04:57:38.547Z,74.28
2022-08-30T04:58:11.219Z,74.19
2022-08-30T04:58:44.161Z,74.33
2022-08-30T04:59:19.101Z,74.00
2022-08-30T04:59:51.399Z,74.24
2022-08-30T05:00:23.970Z,74.20
2022-08-30T05:00:56.233Z,74.33
2022-08-30T05:01:44.633Z,74.51
2022-08-30T05:02:17.874Z,74.36
2022-08-30T05:02:50.536Z,74.03
2022-08-30T05:03:25.542Z,74.03
2022-08-30T05:03:58.734Z,74.05
2022-08-30T05:04:30.910Z,73.91
2022-08-30T05:05:19.053Z,73.71
2022-08-30T05:05:54.307Z,73.52
2022-08-30T05:06:31.181Z,73.73
2022-08-30T05:07:03.394Z,73.31
2022-08-30T05:07:38.404Z,73.57
2022-08-30T05:08:12.902Z,73.82
2022-08-30T05:08:48.507Z,73.67
2022-08-30T05:09:21.730Z,73.44
2022-08-30T05:09:53.987Z,73.29
2022-08-30T05:10:29.788Z,73.08
2022-08-30T05:11:04.846Z,73.03
2022-08-30T05:11:39.791Z,73.07
2022-08-30T05:12:14.546Z,73.42
2022-08-30T05:12:46.820Z,72.85
2022-08-30T05:13:25.968Z,73.13
2022-08-30T05:14:07.967Z,73.04
2022-08-30T05:14:42.837Z,72.64
2022-08-30T05:15:17.977Z,72.42
2022-08-30T05:15:50.274Z,72.88
2022-08-30T05:16:25.140Z,72.52
2022-08-30T05:16:57.402Z,72.43
2022-08-30T05:17:29.596Z,72.67
2022-08-30T05:18:04.620Z,72.32
2022-08-30T05:18:37.545Z,72.32
2022-08-30T05:19:09.792Z,72.31
2022-08-30T05:19:44.796Z,72.28
2022-08-30T05:20:17.341Z,71.99
2022-08-30T05:20:49.527Z,71.83
2022-08-30T05:21:26.686Z,71.59
2022-08-30T05:21:58.847Z,71.60
2022-08-30T05:22:31.122Z,71.71
2022-08-30T05:23:06.903Z,71.72
2022-08-30T05:23:40.124Z,71.90
2022-08-30T05:24:12.409Z,71.66
2022-08-30T05:24:47.166Z,72.18
2022-08-30T05:25:20.783Z,71.92
2022-08-30T05:25:55.543Z,72.19
2022-08-30T05:26:33.114Z,71.83
2022-08-30T05:27:08.347Z,71.49
2022-08-30T05:27:43.109Z,71.40
2022-08-30T05:28:15.448Z,71.51
2022-08-30T05:28:50.598Z,71.80
2022-08-30T05:29:23.145Z,71.67
2022-08-30T05:29:56.224Z,71.50
2022-08-30T05:30:34.445Z,71.42
2022-08-30T05:31:14.744Z,71.58
2022-08-30T05:31:49.281Z,71.32
2022-08-30T05:32:21.571Z,71.35
2022-08-30T05:32:55.684Z,71.72
2022-08-30T05:33:30.553Z,71.29
2022-08-30T05:34:08.442Z,71.32
2022-08-30T05:34:40.579Z,71.71
2022-08-30T05:35:17.245Z,71.25
2022-08-30T05:35:49.421Z,70.53
2022-08-30T05:36:26.832Z,70.49
2022-08-30T05:36:59.606Z,70.42
2022-08-30T05:37:34.409Z,70.59
2022-08-30T05:38:09.369Z,70.05
2022-08-30T05:38:43.047Z,70.36
2022-08-30T05:39:18.864Z,70.33
2022-08-30T05:39:54.197Z,70.64
2022-08-30T05:40:26.521Z,70.64
2022-08-30T05:41:08.259Z,70.37
2022-08-30T05:41:43.175Z,70.56
2022-08-30T05:42:18.618Z,70.69
2022-08-30T05:42:53.401Z,70.50
2022-08-30T05:43:26.925Z,70.38
2022-08-30T05:44:07.017Z,70.13
2022-08-30T05:44:39.234Z,69.92
2022-08-30T05:45:19.596Z,70.12
2022-08-30T05:45:59.114Z,69.85
2022-08-30T05:46:35.615Z,69.83
2022-08-30T05:47:07.827Z,70.03
2022-08-30T05:47:40.426Z,69.78
2022-08-30T05:48:15.331Z,69.69
2022-08-30T05:48:48.071Z,69.97
2022-08-30T05:49:22.937Z,69.60
2022-08-30T05:49:55.078Z,69.58
2022-08-30T05:50:27.245Z,70.25
2022-08-30T05:51:09.057Z,69.65
2022-08-30T05:51:43.292Z,70.08
2022-08-30T05:52:18.348Z,69.79
2022-08-30T05:52:53.217Z,69.73
2022-08-30T05:53:25.641Z,69.82
2022-08-30T05:53:59.345Z,69.71
2022-08-30T05:54:34.161Z,69.73
2022-08-30T05:55:08.207Z,69.37
2022-08-30T05:55:41.552Z,69.43
2022-08-30T05:56:20.595Z,69.36
2022-08-30T05:56:52.773Z,69.77
2022-08-30T05:57:25.637Z,69.83
2022-08-30T05:58:03.517Z,69.91
2022-08-30T05:58:35.958Z,69.57
2022-08-30T05:59:09.208Z,69.94
2022-08-30T05:59:44.109Z,69.45
2022-08-30T06:00:19.080Z,69.83
2022-08-30T06:00:51.230Z,69.73
2022-08-30T06:01:28.592Z,69.57
2022-08-30T06:02:00.967Z,69.31
2022-08-30T06:02:33.451Z,69.51
2022-08-30T06:03:08.507Z,69.68
2022-08-30T06:03:40.840Z,69.37
2022-08-30T06:04:13.666Z,69.68
2022-08-30T06:04:49.451Z,69.56
2022-08-30T06:05:21.975Z,69.23
2022-08-30T06:05:55.279Z,69.01
2022-08-30T06:06:30.597Z,69.07
2022-08-30T06:07:03.339Z,69.20
2022-08-30T06:07:38.551Z,69.12
2022-08-30T06:08:10.826Z,69.15
2022-08-30T06:08:49.253Z,68.76
2022-08-30T06:09:21.754Z,68.96
2022-08-30T06:09:54.138Z,68.65
2022-08-30T06:10:28.898Z,68.92
2022-08-30T06:11:01.148Z,68.74
2022-08-30T06:11:34.507Z,69.24
2022-08-30T06:12:09.893Z,68.86
2022-08-30T06:12:42.088Z,68.85
2022-08-30T06:13:19.473Z,69.30
2022-08-30T06:13:53.035Z,68.40
2022-08-30T06:14:25.308Z,68.31
2022-08-30T06:15:00.213Z,68.32
2022-08-30T06:15:32.397Z,68.16
2022-08-30T06:16:04.812Z,68.57
2022-08-30T06:16:41.589Z,67.90
2022-08-30T06:17:13.854Z,68.42
2022-08-30T06:17:45.974Z,68.01
2022-08-30T06:18:21.622Z,68.08
2022-08-30T06:19:01.774Z,68.24
2022-08-30T06:19:36.557Z,68.31
2022-08-30T06:20:10.655Z,67.84
2022-08-30T06:20:44.494Z,68.17
2022-08-30T06:21:20.371Z,68.34
2022-08-30T06:21:52.593Z,68.03
2022-08-30T06:22:27.317Z,68.39
2022-08-30T06:22:59.439Z,68.01
2022-08-30T06:23:31.939Z,67.92
2022-08-30T06:24:09.048Z,68.34
2022-08-30T06:24:57.070Z,68.28
2022-08-30T06:25:42.147Z,68.35
2022-08-30T06:26:14.941Z,67.71
2022-08-30T06:26:50.443Z,67.55
2022-08-30T06:27:22.628Z,67.51
2022-08-30T06:27:57.422Z,67.91
2022-08-30T06:28:32.427Z,67.88
2022-08-30T06:29:07.322Z,67.37
2022-08-30T06:29:40.264Z,67.54
2022-08-30T06:30:13.039Z,67.65
2022-08-30T06:30:47.763Z,67.80
2022-08-30T06:31:22.200Z,67.67
2022-08-30T06:31:54.925Z,67.17
2022-08-30T06:32:29.778Z,67.21
2022-08-30T06:33:02.261Z,67.17
2022-08-30T06:33:34.639Z,67.26
2022-08-30T06:34:09.926Z,67.09
2022-08-30T06:34:42.130Z,67.28
2022-08-30T06:35:14.456Z,67.45
2022-08-30T06:35:58.238Z,67.38
2022-08-30T06:36:32.301Z,67.54
2022-08-30T06:37:04.717Z,66.89
2022-08-30T06:37:39.659Z,66.68
2022-08-30T06:38:11.837Z,67.06
2022-08-30T06:38:45.410Z,66.87
2022-08-30T06:39:20.177Z,66.83
2022-08-30T06:39:52.347Z,67.00
2022-08-30T06:40:25.056Z,67.02
2022-08-30T06:40:59.971Z,66.88
2022-08-30T06:41:34.401Z,66.47
2022-08-30T06:42:06.721Z,66.74
2022-08-30T06:42:41.798Z,66.26
2022-08-30T06:43:13.996Z,66.31
2022-08-30T06:43:49.433Z,66.44
2022-08-30T06:44:24.223Z,66.50
2022-08-30T06:44:56.662Z,66.40
2022-08-30T06:45:31.096Z,65.88
2022-08-30T06:46:08.711Z,65.43
2022-08-30T06:46:40.973Z,65.88
2022-08-30T06:47:15.824Z,65.51
2022-08-30T06:47:48.865Z,65.19
2022-08-30T06:48:21.026Z,64.97
2022-08-30T06:48:56.346Z,64.27
2022-08-30T06:49:28.642Z,64.48
2022-08-30T06:50:00.810Z,64.49
2022-08-30T06:50:35.911Z,64.15
2022-08-30T06:51:09.236Z,64.08
2022-08-30T06:51:44.139Z,63.97
2022-08-30T06:52:16.449Z,64.05
2022-08-30T06:52:54.010Z,63.48
2022-08-30T06:53:26.858Z,63.31
2022-08-30T06:53:59.825Z,63.79
2022-08-30T06:54:34.651Z,63.45
2022-08-30T06:55:07.729Z,63.89
2022-08-30T06:55:40.146Z,63.52
2022-08-30T06:56:16.763Z,63.95
2022-08-30T06:56:58.321Z,63.74
2022-08-30T06:57:33.562Z,63.27
2022-08-30T06:58:05.995Z,63.34
2022-08-30T06:58:42.404Z,63.64
2022-08-30T06:59:17.332Z,63.71
2022-08-30T06:59:56.654Z,63.92
2022-08-30T07:00:29.431Z,63.52
2022-08-30T07:01:04.199Z,64.08
2022-08-30T07:01:36.441Z,63.99
2022-08-30T07:02:11.613Z,63.71
2022-08-30T07:02:44.139Z,64.13
2022-08-30T07:03:16.587Z,63.54
2022-08-30T07:03:51.914Z,63.42
2022-08-30T07:04:24.495Z,63.39
2022-08-30T07:04:56.754Z,63.11
2022-08-30T07:05:31.623Z,63.16
2022-08-30T07:06:04.662Z,62.76
2022-08-30T07:06:36.855Z,63.38
2022-08-30T07:07:13.456Z,62.59
2022-08-30T07:07:45.696Z,62.26
2022-08-30T07:08:18.569Z,61.75
2022-08-30T07:08:56.067Z,61.41
2022-08-30T07:09:28.967Z,61.61
2022-08-30T07:10:05.960Z,61.61
2022-08-30T07:10:38.681Z,61.07
2022-08-30T07:11:11.506Z,61.22
2022-08-30T07:11:46.481Z,61.03
2022-08-30T07:12:18.868Z,60.94
2022-08-30T07:12:53.607Z,60.65
2022-08-30T07:13:28.347Z,61.18
2022-08-30T07:14:01.577Z,61.07
2022-08-30T07:14:38.978Z,60.72
2022-08-30T07:15:12.366Z,61.17
2022-08-30T07:15:48.391Z,61.09
2022-08-30T07:16:21.159Z,61.02
2022-08-30T07:16:53.340Z,60.89
2022-08-30T07:17:40.615Z,60.25
2022-08-30T07:18:28.416Z,60.35
2022-08-30T07:19:03.533Z,60.13
2022-08-30T07:19:35.673Z,60.13
2022-08-30T07:20:09.107Z,59.71
2022-08-30T07:20:41.346Z,59.61
2022-08-30T07:21:19.089Z,59.37
2022-08-30T07:21:51.306Z,58.96
2022-08-30T07:22:26.032Z,58.93
2022-08-30T07:22:58.273Z,59.30